Time;durP1;ratioP1;P1;durP2;ratioP2;P2;SDS_P1;SDS_P2;PMS_P1;PMS_P2;Temp;Humidity;BMP_temperature;BMP_pressure;BME280_temperature;BME280_humidity;BME280_pressure;Samples;Min_cycle;Max_cycle;Signal;HPM_P1;HPM_P2
2023/10/28 00:02:08;;;;;;;2.72;2.40;;;;;;;;;;4972415;28;20140;-29
2023/10/28 00:04:35;;;;;;;2.75;2.30;;;;;;;;;;4972439;28;20074;-29
2023/10/28 00:07:02;;;;;;;2.67;2.25;;;20.30;79.30;;;;;;4972882;28;20097;-29
2023/10/28 00:09:29;;;;;;;3.08;2.60;;;;;;;;;;4975922;28;20054;-30
2023/10/28 00:11:56;;;;;;;3.22;2.45;;;20.30;73.90;;;;;;4975788;28;20046;-29
2023/10/28 00:14:23;;;;;;;2.47;2.28;;;20.00;70.10;;;;;;4975415;28;20043;-29
2023/10/28 00:16:51;;;;;;;3.05;2.30;;;20.30;61.50;;;;;;4976006;28;20073;-29
2023/10/28 00:19:19;;;;;;;5.63;2.20;;;;;;;;;;4975834;28;20051;-30
2023/10/28 00:21:46;;;;;;;2.83;2.40;;;20.20;75.30;;;;;;4975894;28;20078;-29
2023/10/28 00:24:12;;;;;;;2.97;2.60;;;20.30;79.10;;;;;;4975247;28;20153;-29
2023/10/28 00:26:40;;;;;;;2.67;2.35;;;;;;;;;;4975733;28;20476;-30
2023/10/28 00:29:07;;;;;;;3.08;2.40;;;20.10;63.10;;;;;;4975813;28;20082;-29
2023/10/28 00:31:34;;;;;;;2.63;2.28;;;;;;;;;;4975788;28;20090;-30
2023/10/28 00:34:02;;;;;;;3.40;2.60;;;20.10;79.00;;;;;;4975336;28;20100;-29
2023/10/28 00:36:30;;;;;;;3.00;2.60;;;;;;;;;;4975058;28;20093;-29
2023/10/28 00:38:57;;;;;;;3.17;2.65;;;20.10;79.10;;;;;;4975228;28;20093;-29
2023/10/28 00:41:23;;;;;;;2.80;2.28;;;20.60;79.50;;;;;;4975724;28;20055;-29
2023/10/28 00:43:50;;;;;;;2.58;2.30;;;19.90;66.70;;;;;;4975242;28;20082;-29
2023/10/28 00:46:17;;;;;;;3.15;2.55;;;19.10;78.60;;;;;;4975474;28;20051;-29
2023/10/28 00:48:44;;;;;;;2.85;2.30;;;20.30;79.30;;;;;;4975464;28;20129;-29
2023/10/28 00:51:12;;;;;;;3.08;2.38;;;20.00;61.60;;;;;;4975194;28;20091;-29
2023/10/28 00:53:39;;;;;;;2.78;2.22;;;19.90;79.60;;;;;;4974761;28;20090;-29
2023/10/28 00:56:06;;;;;;;2.40;2.20;;;19.80;79.50;;;;;;4975155;28;20055;-29
2023/10/28 00:58:33;;;;;;;3.00;2.42;;;20.60;79.80;;;;;;4975051;28;20054;-29
2023/10/28 01:01:00;;;;;;;3.08;2.50;;;;;;;;;;4975263;28;20054;-29
2023/10/28 01:03:30;;;;;;;3.13;2.25;;;19.30;71.30;;;;;;4974489;28;20047;-30
2023/10/28 01:05:57;;;;;;;2.63;2.30;;;;;;;;;;4974773;28;20053;-29
2023/10/28 01:08:25;;;;;;;2.80;2.38;;;20.00;61.70;;;;;;4975120;28;20098;-29
2023/10/28 01:10:52;;;;;;;2.72;2.30;;;21.10;80.10;;;;;;4974874;28;20055;-29
2023/10/28 01:13:19;;;;;;;2.90;2.10;;;;;;;;;;4974248;28;20440;-30
2023/10/28 01:15:46;;;;;;;2.58;2.30;;;19.30;79.50;;;;;;4974917;28;20055;-29
2023/10/28 01:18:13;;;;;;;3.55;2.47;;;19.80;79.70;;;;;;4974248;28;20110;-29
2023/10/28 01:20:40;;;;;;;3.40;2.42;;;19.70;80.20;;;;;;4974065;28;20053;-29
2023/10/28 01:23:09;;;;;;;2.80;2.38;;;19.90;61.60;;;;;;4974342;28;20047;-30
2023/10/28 01:25:36;;;;;;;2.50;2.20;;;;;;;;;;4974489;28;20173;-30
2023/10/28 01:28:03;;;;;;;3.30;2.80;;;20.90;80.80;;;;;;4974688;28;20102;-29
2023/10/28 01:30:30;;;;;;;2.72;2.20;;;;;;;;;;4974511;28;20086;-30
2023/10/28 01:32:57;;;;;;;2.58;2.20;;;18.90;78.90;;;;;;4974241;28;20051;-29
2023/10/28 01:35:23;;;;;;;4.07;2.40;;;19.40;79.60;;;;;;4974142;28;20039;-29
2023/10/28 01:37:50;;;;;;;2.65;2.40;;;19.90;79.90;;;;;;4973965;28;20050;-29
2023/10/28 01:40:19;;;;;;;2.60;2.30;;;20.00;61.90;;;;;;4974280;28;20047;-29
2023/10/28 01:42:46;;;;;;;2.92;2.50;;;19.90;80.50;;;;;;4974320;28;20055;-29
2023/10/28 01:45:13;;;;;;;3.10;2.50;;;18.80;79.00;;;;;;4974118;28;20046;-29
2023/10/28 01:47:41;;;;;;;3.83;2.50;;;;;;;;;;4974059;28;20090;-30
2023/10/28 01:50:08;;;;;;;2.90;2.38;;;19.80;79.90;;;;;;4974198;28;20055;-29
2023/10/28 01:52:35;;;;;;;3.35;2.40;;;;;;;;;;4974105;28;20046;-29
2023/10/28 01:55:02;;;;;;;3.22;2.47;;;;;;;;;;4973996;28;20105;-29
2023/10/28 01:57:30;;;;;;;3.00;2.20;;;19.50;79.50;;;;;;4974352;28;20135;-29
2023/10/28 01:59:58;;;;;;;3.20;2.50;;;;;;;;;;4973982;28;20054;-29
2023/10/28 02:02:25;;;;;;;3.35;2.60;;;;;;;;;;4973368;28;20068;-30
2023/10/28 02:04:52;;;;;;;3.35;2.70;;;19.60;79.80;;;;;;4974098;28;20094;-29
2023/10/28 02:07:19;;;;;;;2.80;2.50;;;19.50;79.80;;;;;;4973767;28;20504;-29
2023/10/28 02:09:48;;;;;;;4.28;2.53;;;19.80;79.80;;;;;;4973744;28;20137;-29
2023/10/28 02:12:15;;;;;;;2.97;2.45;;;;;;;;;;4973485;28;20062;-30
2023/10/28 02:14:46;;;;;;;3.22;2.85;;;19.70;61.90;;;;;;4973316;28;20055;-29
2023/10/28 02:17:12;;;;;;;3.40;2.50;;;19.00;79.80;;;;;;4973897;28;20074;-29
2023/10/28 02:19:39;;;;;;;5.10;3.05;;;19.70;73.00;;;;;;4973690;28;20047;-29
2023/10/28 02:22:06;;;;;;;3.40;2.70;;;20.80;65.10;;;;;;4973419;28;20147;-29
2023/10/28 02:24:33;;;;;;;2.97;2.58;;;19.60;80.10;;;;;;4973297;28;20098;-29
2023/10/28 02:26:59;;;;;;;3.65;3.00;;;19.50;73.50;;;;;;4973506;28;20078;-29
2023/10/28 02:29:26;;;;;;;3.72;2.78;;;20.10;80.40;;;;;;4973295;28;20109;-29
2023/10/28 02:31:54;;;;;;;3.67;3.08;;;19.60;80.10;;;;;;4973469;28;20125;-29
2023/10/28 02:34:21;;;;;;;3.15;2.83;;;18.90;79.70;;;;;;4973222;28;20078;-29
2023/10/28 02:36:48;;;;;;;3.53;3.22;;;19.60;73.60;;;;;;4972679;28;20094;-29
2023/10/28 02:39:14;;;;;;;3.90;3.17;;;19.50;80.20;;;;;;4973276;28;20059;-29
2023/10/28 02:41:41;;;;;;;4.00;3.25;;;19.50;80.30;;;;;;4973201;28;20523;-29
2023/10/28 02:44:08;;;;;;;3.80;3.00;;;18.60;75.00;;;;;;4972861;28;20648;-29
2023/10/28 02:46:35;;;;;;;3.70;3.05;;;19.30;80.10;;;;;;4973246;28;20086;-29
2023/10/28 02:49:04;;;;;;;4.28;3.42;;;19.30;80.20;;;;;;4973024;28;20054;-29
2023/10/28 02:51:31;;;;;;;2.97;2.67;;;;;;;;;;4973395;28;20079;-29
2023/10/28 02:53:59;;;;;;;3.70;3.10;;;20.50;73.30;;;;;;4972821;28;20051;-29
2023/10/28 02:56:26;;;;;;;3.45;2.90;;;;;;;;;;4972747;28;20053;-30
2023/10/28 02:58:53;;;;;;;3.95;3.35;;;19.90;80.60;;;;;;4972993;28;20460;-29
2023/10/28 03:01:20;;;;;;;4.97;3.67;;;;;;;;;;4972900;28;20118;-30
2023/10/28 03:03:47;;;;;;;4.00;3.20;;;19.60;80.30;;;;;;4972888;28;20129;-29
2023/10/28 03:06:15;;;;;;;3.55;3.05;;;19.40;80.50;;;;;;4972736;28;20050;-29
2023/10/28 03:08:43;;;;;;;5.28;3.42;;;19.00;65.80;;;;;;4972941;28;20062;-30
2023/10/28 03:11:09;;;;;;;4.68;3.60;;;19.50;80.00;;;;;;4972892;28;20078;-29
2023/10/28 03:13:37;;;;;;;4.40;3.42;;;;;;;;;;4972564;28;20097;-30
2023/10/28 03:16:04;;;;;;;3.40;3.10;;;20.40;80.70;;;;;;4972777;28;20505;-29
2023/10/28 03:18:31;;;;;;;4.15;3.22;;;19.20;80.40;;;;;;4972915;28;20050;-30
2023/10/28 03:20:58;;;;;;;4.57;3.70;;;20.60;81.30;;;;;;4972725;28;20082;-29
2023/10/28 03:23:26;;;;;;;6.30;3.53;;;19.90;71.80;;;;;;4972376;28;20467;-29
2023/10/28 03:25:53;;;;;;;4.40;3.80;;;20.40;73.20;;;;;;4973072;28;20047;-29
2023/10/28 03:28:20;;;;;;;5.05;3.60;;;19.10;80.50;;;;;;4972903;28;20050;-29
2023/10/28 03:30:47;;;;;;;5.25;3.80;;;19.70;78.20;;;;;;4972978;28;20132;-29
2023/10/28 03:33:14;;;;;;;4.15;3.33;;;18.30;80.00;;;;;;4972508;28;20059;-29
2023/10/28 03:35:41;;;;;;;5.72;3.70;;;;;;;;;;4972388;28;20070;-29
2023/10/28 03:38:08;;;;;;;5.22;3.97;;;19.80;70.80;;;;;;4972059;28;20082;-29
2023/10/28 03:40:37;;;;;;;4.47;3.83;;;19.50;70.30;;;;;;4972889;28;20054;-30
2023/10/28 03:43:04;;;;;;;5.07;3.88;;;19.00;80.70;;;;;;4974439;28;20062;-29
2023/10/28 03:45:31;;;;;;;4.07;3.58;;;;;;;;;;4976479;28;20109;-29
2023/10/28 03:47:58;;;;;;;5.50;3.47;;;19.60;70.50;;;;;;4976354;28;20070;-29
2023/10/28 03:50:25;;;;;;;4.95;3.90;;;18.30;80.10;;;;;;4976343;28;20051;-29
2023/10/28 03:52:52;;;;;;;4.03;3.60;;;20.40;70.60;;;;;;4976372;28;20062;-29
2023/10/28 03:55:19;;;;;;;4.28;3.53;;;19.50;81.20;;;;;;4975873;28;20051;-29
2023/10/28 03:57:47;;;;;;;5.78;3.90;;;19.50;62.20;;;;;;4976433;28;20098;-30
2023/10/28 04:00:14;;;;;;;4.13;3.70;;;19.30;62.20;;;;;;4976228;28;20088;-29
2023/10/28 04:02:41;;;;;;;4.13;3.47;;;19.00;81.00;;;;;;4975812;28;20424;-29
2023/10/28 04:05:08;;;;;;;3.85;3.28;;;;;;;;;;4975914;28;20058;-29
2023/10/28 04:07:35;;;;;;;4.25;3.70;;;19.30;80.80;;;;;;4976217;28;20047;-29
2023/10/28 04:10:07;;;;;;;4.38;3.50;;;;;;;;;;4976144;28;20103;-30
2023/10/28 04:12:34;;;;;;;4.30;3.53;;;19.60;81.40;;;;;;4976084;28;20119;-29
2023/10/28 04:15:02;;;;;;;3.88;3.38;;;19.00;63.40;;;;;;4975754;28;20047;-30
2023/10/28 04:17:31;;;;;;;4.25;3.33;;;18.80;69.60;;;;;;4975924;28;20105;-29
2023/10/28 04:19:59;;;;;;;4.25;3.63;;;19.80;81.40;;;;;;4975753;28;20518;-29
2023/10/28 04:22:26;;;;;;;4.80;3.67;;;19.00;80.80;;;;;;4975838;28;20054;-29
2023/10/28 04:24:53;;;;;;;6.45;3.63;;;;;;;;;;4975443;28;20047;-29
2023/10/28 04:27:21;;;;;;;5.65;3.85;;;19.20;80.80;;;;;;4975433;28;20102;-29
2023/10/28 04:29:47;;;;;;;4.20;3.58;;;18.80;81.00;;;;;;4975668;28;20058;-29
2023/10/28 04:32:17;;;;;;;3.70;3.40;;;19.40;81.10;;;;;;4975487;28;20046;-29
2023/10/28 04:34:44;;;;;;;4.32;3.60;;;19.00;62.20;;;;;;4975827;28;20085;-29
2023/10/28 04:37:12;;;;;;;4.68;3.58;;;18.10;66.10;;;;;;4975030;28;20089;-29
2023/10/28 04:39:40;;;;;;;4.57;3.22;;;;;;;;;;4975445;28;20393;-29
2023/10/28 04:42:08;;;;;;;3.72;2.92;;;19.00;62.90;;;;;;4975406;28;20047;-29
2023/10/28 04:44:35;;;;;;;3.67;3.35;;;;;;;;;;4975104;28;20053;-28
2023/10/28 04:47:02;;;;;;;4.45;3.55;;;;;;;;;;4975377;28;20054;-31
2023/10/28 04:49:30;;;;;;;4.63;3.47;;;19.10;62.30;;;;;;4975325;28;20121;-30
2023/10/28 04:51:58;;;;;;;3.88;3.20;;;;;;;;;;4975060;28;20645;-30
2023/10/28 04:54:24;;;;;;;4.00;3.17;;;18.70;81.20;;;;;;4974763;28;20058;-31
2023/10/28 04:56:51;;;;;;;5.60;3.45;;;;;;;;;;4975299;28;20619;-31
2023/10/28 04:59:18;;;;;;;4.20;3.38;;;19.70;81.40;;;;;;4975050;28;20106;-31
2023/10/28 05:01:45;;;;;;;3.83;3.33;;;19.00;81.50;;;;;;4974902;28;20182;-31
2023/10/28 05:04:12;;;;;;;3.83;3.20;;;;;;;;;;4974966;28;20082;-30
2023/10/28 05:06:41;;;;;;;3.40;3.00;;;19.40;81.50;;;;;;4974950;28;20086;-31
2023/10/28 05:09:08;;;;;;;3.65;2.90;;;;;;;;;;4974739;28;20051;-31
2023/10/28 05:11:35;;;;;;;4.15;2.92;;;;;;;;;;4975194;28;20385;-31
2023/10/28 05:14:03;;;;;;;4.53;3.17;;;;;;;;;;4975507;28;20057;-31
2023/10/28 05:16:31;;;;;;;3.78;2.97;;;;;;;;;;4994055;28;20527;-30
2023/10/28 05:18:58;;;;;;;3.70;3.28;;;;;;;;;;4994217;28;20054;-31
2023/10/28 05:21:25;;;;;;;3.45;3.08;;;19.10;73.60;;;;;;4993815;28;20054;-31
2023/10/28 05:23:55;;;;;;;4.30;3.40;;;19.40;81.70;;;;;;4990242;28;20054;-31
2023/10/28 05:26:21;;;;;;;4.40;3.28;;;18.00;81.00;;;;;;4974461;28;20492;-31
2023/10/28 05:28:51;;;;;;;3.92;2.97;;;;;;;;;;4974818;28;20109;-30
2023/10/28 05:31:18;;;;;;;3.45;2.88;;;18.90;81.30;;;;;;4974617;28;20423;-31
2023/10/28 05:33:45;;;;;;;4.78;3.15;;;;;;;;;;4974164;28;20455;-30
2023/10/28 05:36:12;;;;;;;3.80;3.20;;;18.60;81.40;;;;;;4980612;28;20109;-31
2023/10/28 05:38:39;;;;;;;4.47;2.83;;;;;;;;;;4974352;28;20047;-31
2023/10/28 05:41:09;;;;;;;5.03;2.97;;;19.00;76.70;;;;;;4974235;28;20054;-31
2023/10/28 05:43:35;;;;;;;3.25;2.80;;;18.70;78.00;;;;;;4974236;28;20101;-31
2023/10/28 05:46:03;;;;;;;3.22;2.85;;;19.10;81.90;;;;;;4974494;28;20101;-31
2023/10/28 05:48:29;;;;;;;5.65;3.00;;;18.00;81.30;;;;;;4973878;28;20120;-32
2023/10/28 05:50:57;;;;;;;4.07;2.90;;;19.90;82.20;;;;;;4974372;28;20101;-31
2023/10/28 05:53:24;;;;;;;3.83;2.65;;;19.20;81.50;;;;;;4973469;28;20053;-31
2023/10/28 05:55:52;;;;;;;4.68;3.33;;;18.70;81.30;;;;;;4974065;28;20151;-31
2023/10/28 05:58:20;;;;;;;3.90;2.90;;;18.90;62.60;;;;;;4974126;28;20057;-31
2023/10/28 06:00:48;;;;;;;4.72;3.17;;;18.90;81.80;;;;;;4974064;28;20046;-32
2023/10/28 06:03:14;;;;;;;4.97;2.85;;;19.20;81.60;;;;;;4973814;28;20082;-31
2023/10/28 06:05:41;;;;;;;3.10;2.80;;;18.50;81.60;;;;;;4973084;28;20117;-31
2023/10/28 06:08:08;;;;;;;3.47;3.00;;;18.70;68.50;;;;;;4973710;28;20050;-31
2023/10/28 06:10:35;;;;;;;5.97;3.22;;;19.20;82.00;;;;;;4974120;28;20050;-31
2023/10/28 06:13:01;;;;;;;3.53;2.90;;;19.20;81.80;;;;;;4973475;28;20051;-32
2023/10/28 06:15:30;;;;;;;5.07;2.80;;;19.00;68.70;;;;;;4973458;28;20090;-31
2023/10/28 06:17:57;;;;;;;4.03;2.95;;;18.60;81.80;;;;;;4973755;28;20058;-31
2023/10/28 06:20:24;;;;;;;3.50;2.75;;;19.50;65.60;;;;;;4973461;28;20046;-30
2023/10/28 06:22:52;;;;;;;3.75;2.78;;;18.70;81.80;;;;;;4973206;28;20077;-31
2023/10/28 06:25:19;;;;;;;3.67;2.58;;;;;;;;;;4973448;28;20059;-31
2023/10/28 06:27:45;;;;;;;4.68;2.70;;;18.90;82.00;;;;;;4973522;28;20093;-31
2023/10/28 06:30:14;;;;;;;3.95;2.83;;;18.80;62.70;;;;;;4973510;28;20046;-30
2023/10/28 06:32:42;;;;;;;2.70;2.35;;;17.90;81.20;;;;;;4973055;28;20047;-31
2023/10/28 06:35:09;;;;;;;4.30;2.70;;;19.00;82.10;;;;;;4976410;28;20055;-31
2023/10/28 06:37:39;;;;;;;6.47;2.70;;;18.80;81.70;;;;;;4978423;28;20051;-29
2023/10/28 06:40:09;;;;;;;2.70;2.30;;;19.80;63.60;;;;;;4973621;28;20473;-29
2023/10/28 06:42:36;;;;;;;3.33;2.60;;;18.70;81.90;;;;;;4973569;28;20106;-29
2023/10/28 06:45:03;;;;;;;4.10;2.60;;;18.50;72.20;;;;;;4972588;28;20515;-29
2023/10/28 06:47:30;;;;;;;3.10;2.38;;;18.80;68.20;;;;;;4973571;28;20444;-29
2023/10/28 06:49:58;;;;;;;3.05;2.38;;;19.00;63.00;;;;;;4973186;28;20062;-30
2023/10/28 06:52:25;;;;;;;4.68;2.40;;;;;;;;;;4973564;28;20050;-30
2023/10/28 06:54:52;;;;;;;2.55;2.10;;;18.60;81.40;;;;;;4973048;28;20053;-29
2023/10/28 06:57:19;;;;;;;3.20;2.13;;;;;;;;;;4972895;28;20515;-30
2023/10/28 06:59:46;;;;;;;5.72;2.53;;;19.00;81.60;;;;;;4973312;28;20428;-29
2023/10/28 07:02:13;;;;;;;3.20;2.25;;;;;;;;;;4973104;28;20106;-29
2023/10/28 07:04:41;;;;;;;2.88;2.35;;;20.50;81.90;;;;;;4973091;28;20133;-29
2023/10/28 07:07:12;;;;;;;2.72;2.10;;;18.40;80.40;;;;;;4973411;28;20102;-29
2023/10/28 07:09:39;;;;;;;2.90;2.20;;;;;;;;;;4973342;28;20054;-29
2023/10/28 07:12:08;;;;;;;4.72;1.98;;;20.10;81.30;;;;;;4972893;28;20457;-29
2023/10/28 07:14:34;;;;;;;4.00;1.90;;;19.90;81.00;;;;;;4972780;28;20105;-29
2023/10/28 07:17:02;;;;;;;3.45;2.05;;;20.10;80.60;;;;;;4973285;28;20456;-29
2023/10/28 07:19:29;;;;;;;3.00;1.90;;;20.10;80.40;;;;;;4977341;28;20086;-29
2023/10/28 07:21:56;;;;;;;3.20;2.10;;;;;;;;;;4977079;28;20050;-30
2023/10/28 07:24:24;;;;;;;2.20;1.60;;;20.20;80.60;;;;;;4976717;28;20145;-29
2023/10/28 07:26:51;;;;;;;3.85;1.70;;;19.50;80.20;;;;;;4976296;28;20114;-29
2023/10/28 07:29:18;;;;;;;2.30;1.70;;;;;;;;;;4976895;28;20055;-30
2023/10/28 07:31:47;;;;;;;3.13;1.98;;;;;;;;;;4975580;28;20051;-29
2023/10/28 07:34:14;;;;;;;2.80;1.77;;;;;;;;;;4974733;28;20086;-30
2023/10/28 07:36:41;;;;;;;2.35;1.50;;;20.40;80.10;;;;;;4982149;28;20137;-29
2023/10/28 07:39:09;;;;;;;2.45;1.77;;;;;;;;;;4975606;28;20113;-30
2023/10/28 07:41:38;;;;;;;2.97;1.88;;;20.10;79.80;;;;;;4975345;28;20047;-28
2023/10/28 07:44:05;;;;;;;2.10;1.63;;;21.20;68.30;;;;;;4975484;28;20054;-29
2023/10/28 07:46:33;;;;;;;1.98;1.60;;;20.40;68.60;;;;;;4975357;28;20050;-29
2023/10/28 07:49:00;;;;;;;2.45;1.48;;;;;;;;;;4975499;28;20058;-29
2023/10/28 07:51:27;;;;;;;2.17;1.40;;;;;;;;;;4975674;28;20054;-29
2023/10/28 07:53:54;;;;;;;2.10;1.58;;;20.50;79.20;;;;;;4975553;28;20106;-29
2023/10/28 07:56:21;;;;;;;1.83;1.35;;;20.80;63.80;;;;;;4975445;28;20050;-30
2023/10/28 07:58:50;;;;;;;2.50;1.52;;;20.60;79.20;;;;;;4975270;28;20058;-29
2023/10/28 08:01:17;;;;;;;2.38;1.50;;;20.10;61.20;;;;;;4975683;28;20483;-29
2023/10/28 08:03:45;;;;;;;1.98;1.50;;;20.60;79.30;;;;;;4975312;28;20047;-29
2023/10/28 08:06:13;;;;;;;3.65;1.58;;;21.60;79.70;;;;;;4975325;28;20083;-29
2023/10/28 08:08:40;;;;;;;2.63;1.50;;;;;;;;;;4974520;28;20575;-29
2023/10/28 08:11:08;;;;;;;2.08;1.60;;;;;;;;;;4974815;28;20098;-29
2023/10/28 08:13:35;;;;;;;2.33;1.30;;;20.40;72.50;;;;;;4974896;28;20062;-29
2023/10/28 08:16:03;;;;;;;3.78;1.60;;;20.60;64.30;;;;;;4973788;28;20102;-29
2023/10/28 08:18:32;;;;;;;2.55;1.60;;;21.10;65.10;;;;;;4973749;28;20086;-29
2023/10/28 08:20:59;;;;;;;2.58;1.58;;;19.80;78.50;;;;;;4973693;28;20097;-29
2023/10/28 08:23:28;;;;;;;2.30;1.40;;;20.80;79.40;;;;;;4973072;28;20507;-29
2023/10/28 08:25:55;;;;;;;2.05;1.52;;;20.30;67.20;;;;;;4973533;28;20062;-29
2023/10/28 08:28:22;;;;;;;4.18;1.40;;;;;;;;;;4973275;28;20054;-29
2023/10/28 08:30:49;;;;;;;1.77;1.25;;;20.40;79.00;;;;;;4974516;28;20050;-28
2023/10/28 08:33:20;;;;;;;2.83;1.65;;;20.60;60.90;;;;;;4974576;28;20051;-29
2023/10/28 08:35:47;;;;;;;2.33;1.60;;;20.70;62.60;;;;;;4978768;28;20050;-29
2023/10/28 08:38:16;;;;;;;1.77;1.30;;;;;;;;;;4974223;28;20125;-30
2023/10/28 08:40:45;;;;;;;2.13;1.40;;;20.60;60.90;;;;;;4974897;28;20439;-30
2023/10/28 08:43:12;;;;;;;2.22;1.60;;;19.80;79.10;;;;;;4974635;28;20066;-28
2023/10/28 08:45:38;;;;;;;2.60;1.40;;;20.60;60.90;;;;;;4974390;28;20051;-29
2023/10/28 08:48:06;;;;;;;2.33;1.50;;;;;;;;;;4974450;28;20574;-29
2023/10/28 08:50:34;;;;;;;1.73;1.30;;;20.50;60.90;;;;;;4974587;28;20137;-29
2023/10/28 08:53:03;;;;;;;3.03;1.50;;;20.30;62.80;;;;;;4974288;28;20563;-29
2023/10/28 08:55:30;;;;;;;2.08;1.35;;;20.40;79.10;;;;;;4974396;28;20492;-29
2023/10/28 08:57:57;;;;;;;1.95;1.40;;;;;;;;;;4974257;28;20049;-29
2023/10/28 09:00:26;;;;;;;2.00;1.40;;;20.80;79.80;;;;;;4974462;28;20055;-30
2023/10/28 09:02:53;;;;;;;2.20;1.55;;;;;;;;;;4974313;28;20055;-29
2023/10/28 09:05:21;;;;;;;1.90;1.23;;;21.70;80.30;;;;;;4973974;28;20058;-30
2023/10/28 09:07:49;;;;;;;2.65;1.70;;;20.40;79.60;;;;;;4974251;28;20412;-30
2023/10/28 09:10:16;;;;;;;2.22;1.40;;;20.30;79.20;;;;;;4974083;28;20050;-29
2023/10/28 09:12:43;;;;;;;3.92;1.45;;;20.30;79.20;;;;;;4974184;28;20101;-29
2023/10/28 09:15:11;;;;;;;1.73;1.40;;;20.00;79.10;;;;;;4973790;28;20133;-30
2023/10/28 09:17:39;;;;;;;2.85;1.60;;;20.90;78.60;;;;;;4974127;28;20046;-30
2023/10/28 09:20:09;;;;;;;2.20;1.45;;;20.20;65.20;;;;;;4973953;28;20055;-30
2023/10/28 09:22:37;;;;;;;3.15;1.35;;;21.10;72.60;;;;;;4974193;28;20046;-30
2023/10/28 09:25:06;;;;;;;2.17;1.30;;;20.50;61.30;;;;;;4973603;28;20051;-29
2023/10/28 09:27:33;;;;;;;1.77;1.30;;;20.60;79.80;;;;;;4974060;28;20573;-30
2023/10/28 09:30:05;;;;;;;1.88;1.30;;;20.50;61.20;;;;;;4973798;28;20090;-29
2023/10/28 09:32:33;;;;;;;1.88;1.20;;;20.50;61.20;;;;;;4973508;28;20073;-30
2023/10/28 09:35:03;;;;;;;2.22;1.33;;;21.10;69.00;;;;;;4973560;28;20051;-29
2023/10/28 09:37:31;;;;;;;2.53;1.48;;;;;;;;;;4972741;28;20106;-30
2023/10/28 09:39:57;;;;;;;1.70;1.00;;;19.70;79.30;;;;;;4972615;28;20574;-29
2023/10/28 09:42:26;;;;;;;1.65;1.20;;;20.40;62.40;;;;;;4973519;28;20132;-29
2023/10/28 09:44:53;;;;;;;1.70;1.10;;;;;;;;;;4973091;28;20146;-29
2023/10/28 09:47:22;;;;;;;1.65;1.20;;;20.50;61.30;;;;;;4973177;28;20082;-30
2023/10/28 09:49:49;;;;;;;1.80;1.20;;;20.50;72.30;;;;;;4973333;28;20078;-29
2023/10/28 09:52:16;;;;;;;1.85;1.30;;;20.40;79.70;;;;;;4973149;28;20504;-29
2023/10/28 09:54:43;;;;;;;1.85;1.20;;;20.20;73.40;;;;;;4973040;28;20113;-29
2023/10/28 09:57:11;;;;;;;1.90;1.40;;;20.80;80.20;;;;;;4972767;28;20145;-29
2023/10/28 09:59:39;;;;;;;4.68;1.60;;;20.50;79.60;;;;;;4972487;28;20094;-29
2023/10/28 10:02:15;;;;;;;2.08;1.25;;;20.50;61.30;;;;;;4965536;28;20054;-29
2023/10/28 10:04:44;;;;;;;2.22;1.23;;;20.50;79.30;;;;;;4965750;28;20097;-29
2023/10/28 10:07:10;;;;;;;2.58;1.38;;;21.80;78.10;;;;;;4971862;28;20059;-29
2023/10/28 10:09:43;;;;;;;2.10;1.23;;;20.50;71.80;;;;;;4972320;28;20051;-29
2023/10/28 10:12:11;;;;;;;2.13;1.40;;;20.50;61.30;;;;;;4965006;28;20071;-29
2023/10/28 10:14:45;;;;;;;1.33;1.10;;;20.30;79.10;;;;;;4970422;28;20475;-29
2023/10/28 10:17:18;;;;;;;1.67;1.10;;;20.10;78.80;;;;;;4961897;28;20075;-30
2023/10/28 10:19:45;;;;;;;2.90;1.35;;;;;;;;;;4966046;28;20104;-30
2023/10/28 10:22:12;;;;;;;1.92;1.27;;;20.00;79.30;;;;;;4963665;28;20046;-29
2023/10/28 10:24:49;;;;;;;2.33;1.23;;;20.40;79.60;;;;;;4962578;28;20047;-30
2023/10/28 10:27:16;;;;;;;1.85;1.35;;;;;;;;;;4966173;28;20069;-29
2023/10/28 10:29:46;;;;;;;1.25;1.05;;;21.50;67.70;;;;;;4972163;28;20057;-29
2023/10/28 10:32:16;;;;;;;2.65;1.40;;;20.50;61.60;;;;;;4973078;28;20055;-29
2023/10/28 10:34:45;;;;;;;2.00;1.10;;;;;;;;;;4969592;28;20047;-30
2023/10/28 10:37:22;;;;;;;2.85;1.30;;;20.40;61.60;;;;;;4971039;28;20043;-29
2023/10/28 10:39:49;;;;;;;2.88;1.15;;;;;;;;;;4966669;28;20047;-30
2023/10/28 10:42:16;;;;;;;1.70;1.20;;;;;;;;;;4967664;28;20074;-30
2023/10/28 10:44:44;;;;;;;2.42;1.20;;;20.80;80.00;;;;;;4964701;28;20090;-29
2023/10/28 10:47:12;;;;;;;2.65;1.60;;;;;;;;;;4980516;28;20059;-29
2023/10/28 10:49:40;;;;;;;2.08;1.27;;;21.50;80.90;;;;;;4968169;28;20109;-29
2023/10/28 10:52:08;;;;;;;3.20;1.40;;;20.50;67.60;;;;;;4962108;28;20106;-29
2023/10/28 10:54:36;;;;;;;1.75;1.23;;;20.20;77.70;;;;;;4961274;28;20051;-29
2023/10/28 10:57:03;;;;;;;6.35;1.38;;;20.30;79.60;;;;;;4962404;28;20038;-29
2023/10/28 10:59:31;;;;;;;3.00;1.38;;;20.30;61.80;;;;;;4962559;28;20098;-30
2023/10/28 11:02:00;;;;;;;2.60;1.30;;;20.30;61.80;;;;;;4970472;28;20452;-30
2023/10/28 11:04:27;;;;;;;1.85;1.30;;;;;;;;;;4971545;28;20050;-29
2023/10/28 11:06:54;;;;;;;3.20;1.50;;;20.20;79.60;;;;;;4971943;28;20105;-29
2023/10/28 11:09:21;;;;;;;2.67;1.15;;;;;;;;;;4971307;28;20424;-30
2023/10/28 11:11:48;;;;;;;3.17;1.42;;;20.90;80.00;;;;;;4972229;28;20051;-30
2023/10/28 11:14:15;;;;;;;2.80;1.20;;;;;;;;;;4970584;28;20081;-29
2023/10/28 11:16:42;;;;;;;2.88;1.20;;;19.50;79.60;;;;;;4971282;28;20093;-30
2023/10/28 11:19:11;;;;;;;3.35;1.50;;;20.20;61.90;;;;;;4971277;28;20126;-29
2023/10/28 11:21:39;;;;;;;2.88;1.30;;;20.20;79.60;;;;;;4970803;28;20047;-30
2023/10/28 11:24:07;;;;;;;2.50;1.17;;;20.00;79.40;;;;;;4967723;28;20053;-30
2023/10/28 11:26:36;;;;;;;4.00;1.45;;;20.10;67.10;;;;;;4971027;28;20043;-30
2023/10/28 11:29:04;;;;;;;1.88;1.20;;;;;;;;;;4970805;28;20171;-29
2023/10/28 11:31:31;;;;;;;1.50;1.13;;;19.70;79.60;;;;;;4971079;28;20054;-30
2023/10/28 11:33:58;;;;;;;2.17;1.33;;;19.70;62.00;;;;;;4971151;28;20504;-29
2023/10/28 11:36:26;;;;;;;2.10;1.27;;;19.80;80.00;;;;;;4970675;28;20071;-30
2023/10/28 11:38:54;;;;;;;2.38;1.30;;;21.60;80.80;;;;;;4979721;28;20038;-30
2023/10/28 11:41:21;;;;;;;2.47;1.17;;;20.00;80.20;;;;;;4990948;28;20120;-30
2023/10/28 11:43:49;;;;;;;2.42;1.30;;;20.00;79.90;;;;;;4991084;28;20047;-30
2023/10/28 11:46:16;;;;;;;2.85;1.45;;;;;;;;;;4991098;28;20687;-29
2023/10/28 11:48:45;;;;;;;3.20;1.40;;;;;;;;;;4990371;28;20046;-31
2023/10/28 11:51:13;;;;;;;2.65;1.42;;;;;;;;;;4970121;28;20093;-31
2023/10/28 11:53:44;;;;;;;6.68;2.05;;;20.00;80.20;;;;;;4971797;28;20136;-31
2023/10/28 11:56:10;;;;;;;8.07;2.25;;;19.80;75.00;;;;;;4971664;28;20133;-31
2023/10/28 11:58:37;;;;;;;4.82;2.33;;;20.10;80.00;;;;;;4971856;28;20078;-31
2023/10/28 12:01:04;;;;;;;6.95;2.92;;;19.50;80.10;;;;;;4971670;28;20079;-31
2023/10/28 12:03:33;;;;;;;9.95;3.50;;;;;;;;;;4972366;28;20055;-30
2023/10/28 12:06:00;;;;;;;10.48;3.05;;;;;;;;;;4975281;28;20078;-31
2023/10/28 12:08:27;;;;;;;10.15;3.13;;;;;;;;;;4975163;28;20078;-31
2023/10/28 12:10:55;;;;;;;9.73;3.03;;;19.30;69.30;;;;;;4974988;28;20054;-31
2023/10/28 12:13:22;;;;;;;13.50;3.65;;;;;;;;;;4974620;28;20079;-31
2023/10/28 12:15:49;;;;;;;10.10;3.78;;;19.80;80.20;;;;;;4975261;28;20224;-31
2023/10/28 12:18:16;;;;;;;11.02;3.70;;;20.70;77.10;;;;;;4974915;28;20128;-31
2023/10/28 12:20:44;;;;;;;12.18;4.22;;;19.90;79.30;;;;;;4974892;28;20050;-30
2023/10/28 12:23:13;;;;;;;14.75;3.92;;;19.80;65.50;;;;;;4974948;28;20050;-31
2023/10/28 12:25:40;;;;;;;13.15;3.95;;;19.70;70.80;;;;;;4974520;28;20046;-31
2023/10/28 12:28:08;;;;;;;10.80;3.35;;;19.70;80.10;;;;;;4975035;28;20102;-31
2023/10/28 12:30:36;;;;;;;13.68;4.18;;;20.90;80.70;;;;;;4974746;28;20046;-31
2023/10/28 12:33:03;;;;;;;14.30;4.43;;;;;;;;;;4974779;28;20046;-31
2023/10/28 12:35:30;;;;;;;12.30;4.10;;;19.50;77.20;;;;;;4974091;28;20101;-31
2023/10/28 12:37:57;;;;;;;13.88;4.15;;;;;;;;;;4974327;28;20101;-31
2023/10/28 12:40:26;;;;;;;19.13;4.88;;;19.40;70.60;;;;;;4974389;28;20102;-31
2023/10/28 12:42:54;;;;;;;15.82;4.90;;;;;;;;;;4974602;28;20057;-29
2023/10/28 12:45:22;;;;;;;13.93;4.00;;;19.70;62.30;;;;;;4974094;28;20043;-29
2023/10/28 12:47:49;;;;;;;12.27;4.45;;;19.70;80.50;;;;;;4974462;28;20074;-29
2023/10/28 12:50:18;;;;;;;13.48;4.20;;;;;;;;;;4974436;28;20126;-30
2023/10/28 12:52:45;;;;;;;14.50;4.85;;;;;;;;;;4973413;28;20050;-30
2023/10/28 12:55:12;;;;;;;16.52;4.65;;;;;;;;;;4973675;28;20105;-31
2023/10/28 12:57:39;;;;;;;13.90;5.38;;;19.50;80.40;;;;;;4973631;28;20098;-31
2023/10/28 13:00:10;;;;;;;18.38;5.10;;;19.60;62.40;;;;;;4973461;28;20078;-30
2023/10/28 13:02:38;;;;;;;15.23;5.00;;;19.60;62.50;;;;;;4973780;28;20488;-30
2023/10/28 13:05:05;;;;;;;19.38;4.97;;;20.30;81.00;;;;;;4978554;28;20074;-31
2023/10/28 13:07:32;;;;;;;13.82;4.57;;;18.80;80.00;;;;;;4975237;28;20097;-31
2023/10/28 13:09:59;;;;;;;16.55;5.18;;;19.10;77.00;;;;;;4973763;28;20051;-31
2023/10/28 13:12:26;;;;;;;15.57;4.97;;;19.50;80.50;;;;;;4973407;28;20051;-31
2023/10/28 13:14:53;;;;;;;14.55;4.82;;;18.90;72.30;;;;;;4972818;28;20043;-31